createdAt,value
2022-08-04T00:00:15.879Z,23.15
2022-08-04T00:01:16.046Z,23.13
2022-08-04T00:02:15.882Z,23.12
2022-08-04T00:03:15.859Z,23.10
2022-08-04T00:04:15.851Z,23.09
2022-08-04T00:05:15.842Z,23.09
2022-08-04T00:06:15.972Z,23.08
2022-08-04T00:07:15.819Z,23.07
2022-08-04T00:08:15.821Z,23.05
2022-08-04T00:09:15.764Z,23.04
2022-08-04T00:10:15.771Z,23.01
2022-08-04T00:11:15.867Z,22.99
2022-08-04T00:12:15.940Z,22.97
2022-08-04T00:13:15.743Z,22.95
2022-08-04T00:14:15.775Z,22.94
2022-08-04T00:15:16.680Z,22.92
2022-08-04T00:16:15.797Z,22.91
2022-08-04T00:17:15.872Z,22.90
2022-08-04T00:18:15.741Z,22.89
2022-08-04T00:19:15.662Z,22.88
2022-08-04T00:20:15.681Z,22.87
2022-08-04T00:21:15.642Z,22.86
2022-08-04T00:22:15.622Z,22.85
2022-08-04T00:23:16.067Z,22.83
2022-08-04T00:24:15.613Z,22.81
2022-08-04T00:25:15.682Z,22.80
2022-08-04T00:26:15.635Z,22.78
2022-08-04T00:27:15.618Z,22.77
2022-08-04T00:28:15.594Z,22.77
2022-08-04T00:29:15.759Z,22.76
2022-08-04T00:30:15.556Z,22.76
2022-08-04T00:31:15.982Z,22.76
2022-08-04T00:32:15.529Z,22.76
2022-08-04T00:33:16.549Z,22.76
2022-08-04T00:34:15.540Z,22.75
2022-08-04T00:35:15.925Z,22.73
2022-08-04T00:36:15.499Z,22.72
2022-08-04T00:37:15.523Z,22.71
2022-08-04T00:38:15.485Z,22.69
2022-08-04T00:39:15.518Z,22.68
2022-08-04T00:40:15.434Z,22.66
2022-08-04T00:41:15.909Z,22.65
2022-08-04T00:42:15.415Z,22.65
2022-08-04T00:43:15.447Z,22.64
2022-08-04T00:44:15.413Z,22.64
2022-08-04T00:45:16.445Z,22.64
2022-08-04T00:46:17.807Z,22.63
2022-08-04T00:47:15.607Z,22.63
2022-08-04T00:48:15.399Z,22.62
2022-08-04T00:49:15.405Z,22.61
2022-08-04T00:50:15.372Z,22.60
2022-08-04T00:51:15.390Z,22.60
2022-08-04T00:52:30.763Z,22.59
2022-08-04T00:53:16.476Z,22.58
2022-08-04T00:54:15.349Z,22.58
2022-08-04T00:55:15.339Z,22.57
2022-08-04T00:56:15.302Z,22.56
2022-08-04T00:57:31.159Z,22.56
2022-08-04T00:58:16.476Z,22.54
2022-08-04T00:59:15.280Z,22.53
2022-08-04T01:00:15.277Z,22.52
2022-08-04T01:01:15.276Z,22.50
2022-08-04T01:02:15.256Z,22.48
2022-08-04T01:03:15.242Z,22.47
2022-08-04T01:04:15.407Z,22.45
2022-08-04T01:05:16.189Z,22.44
2022-08-04T01:06:15.187Z,22.43
2022-08-04T01:07:15.167Z,22.42
2022-08-04T01:08:15.177Z,22.40
2022-08-04T01:09:21.143Z,22.38
2022-08-04T01:10:17.677Z,22.36
2022-08-04T01:11:15.157Z,22.34
2022-08-04T01:12:15.138Z,22.32
2022-08-04T01:13:15.701Z,22.31
2022-08-04T01:14:15.093Z,22.29
2022-08-04T01:15:15.120Z,22.28
2022-08-04T01:16:15.238Z,22.26
2022-08-04T01:17:15.067Z,22.25
2022-08-04T01:18:15.068Z,22.24
2022-08-04T01:19:15.040Z,22.22
2022-08-04T01:20:15.075Z,22.21
2022-08-04T01:21:15.020Z,22.19
2022-08-04T01:22:15.174Z,22.17
2022-08-04T01:23:15.023Z,22.15
2022-08-04T01:24:14.989Z,22.12
2022-08-04T01:25:15.009Z,22.10
2022-08-04T01:26:43.523Z,22.07
2022-08-04T01:27:16.190Z,22.05
2022-08-04T01:28:14.970Z,22.04
2022-08-04T01:29:16.076Z,22.03
2022-08-04T01:30:14.959Z,22.02
2022-08-04T01:31:14.940Z,22.01
2022-08-04T01:32:14.885Z,22.00
2022-08-04T01:33:15.076Z,22.00
2022-08-04T01:34:14.888Z,21.99
2022-08-04T01:35:15.499Z,21.99
2022-08-04T01:36:15.965Z,21.98
2022-08-04T01:37:14.860Z,21.98
2022-08-04T01:38:18.336Z,21.97
2022-08-04T01:39:16.166Z,21.96
2022-08-04T01:40:14.841Z,21.95
2022-08-04T01:41:14.837Z,21.94
2022-08-04T01:42:32.027Z,21.94
2022-08-04T01:43:15.771Z,21.93
2022-08-04T01:44:14.814Z,21.92
2022-08-04T01:45:14.932Z,21.92
2022-08-04T01:46:14.764Z,21.91
2022-08-04T01:47:14.754Z,21.90
2022-08-04T01:48:14.753Z,21.89
2022-08-04T01:49:14.750Z,21.88
2022-08-04T01:50:15.065Z,21.87
2022-08-04T01:51:14.673Z,21.85
2022-08-04T01:52:14.740Z,21.84
2022-08-04T01:53:14.717Z,21.83
2022-08-04T01:54:14.657Z,21.82
2022-08-04T01:55:14.692Z,21.81
2022-08-04T01:56:14.811Z,21.80
2022-08-04T01:57:37.674Z,21.78
2022-08-04T01:58:15.643Z,21.76
2022-08-04T01:59:14.615Z,21.74
2022-08-04T02:00:14.625Z,21.72
2022-08-04T02:01:14.708Z,21.71
2022-08-04T02:02:14.866Z,21.70
2022-08-04T02:03:14.745Z,21.70
2022-08-04T02:04:18.362Z,21.69
2022-08-04T02:05:15.593Z,21.68
2022-08-04T02:06:14.559Z,21.67
2022-08-04T02:07:18.877Z,21.66
2022-08-04T02:08:14.511Z,21.65
2022-08-04T02:09:14.699Z,21.65
2022-08-04T02:10:14.514Z,21.65
2022-08-04T02:11:14.528Z,21.64
2022-08-04T02:12:16.276Z,21.63
2022-08-04T02:13:14.445Z,21.62
2022-08-04T02:14:14.465Z,21.61
2022-08-04T02:15:14.689Z,21.60
2022-08-04T02:16:14.529Z,21.59
2022-08-04T02:17:14.433Z,21.57
2022-08-04T02:18:14.423Z,21.56
2022-08-04T02:19:14.728Z,21.54
2022-08-04T02:20:14.385Z,21.52
2022-08-04T02:21:14.550Z,21.50
2022-08-04T02:22:14.365Z,21.49
2022-08-04T02:23:14.373Z,21.48
2022-08-04T02:24:14.344Z,21.47
2022-08-04T02:25:14.372Z,21.46
2022-08-04T02:26:19.362Z,21.45
2022-08-04T02:27:15.344Z,21.43
2022-08-04T02:28:14.352Z,21.41
2022-08-04T02:29:14.335Z,21.40
2022-08-04T02:30:14.297Z,21.38
2022-08-04T02:31:14.265Z,21.37
2022-08-04T02:32:14.476Z,21.36
2022-08-04T02:33:14.369Z,21.35
2022-08-04T02:34:14.260Z,21.34
2022-08-04T02:35:14.302Z,21.32
2022-08-04T02:36:14.248Z,21.32
2022-08-04T02:37:14.269Z,21.31
2022-08-04T02:38:14.374Z,21.30
2022-08-04T02:39:14.265Z,21.29
2022-08-04T02:40:14.219Z,21.28
2022-08-04T02:41:14.200Z,21.27
2022-08-04T02:42:14.204Z,21.26
2022-08-04T02:43:14.405Z,21.26
2022-08-04T02:44:14.159Z,21.26
2022-08-04T02:45:14.126Z,21.26
2022-08-04T02:46:17.800Z,21.26
2022-08-04T02:47:14.141Z,21.26
2022-08-04T02:48:30.765Z,21.25
2022-08-04T02:49:15.252Z,21.25
2022-08-04T02:50:14.095Z,21.24
2022-08-04T02:51:15.057Z,21.24
2022-08-04T02:52:14.082Z,21.22
2022-08-04T02:53:14.034Z,21.21
2022-08-04T02:54:14.255Z,21.20
2022-08-04T02:55:14.097Z,21.18
2022-08-04T02:56:14.012Z,21.16
2022-08-04T02:57:14.048Z,21.15
2022-08-04T02:58:14.028Z,21.14
2022-08-04T02:59:14.006Z,21.12
2022-08-04T03:00:14.139Z,21.11
2022-08-04T03:01:14.025Z,21.10
2022-08-04T03:02:13.938Z,21.08
2022-08-04T03:03:13.951Z,21.07
2022-08-04T03:04:16.266Z,21.05
2022-08-04T03:05:15.080Z,21.04
2022-08-04T03:06:13.913Z,21.03
2022-08-04T03:07:14.330Z,21.02
2022-08-04T03:08:13.880Z,21.01
2022-08-04T03:09:13.869Z,21.01
2022-08-04T03:10:13.895Z,21.00
2022-08-04T03:11:14.161Z,20.99
2022-08-04T03:12:13.855Z,20.99
2022-08-04T03:13:13.841Z,20.98
2022-08-04T03:14:13.875Z,20.98
2022-08-04T03:15:13.822Z,20.97
2022-08-04T03:16:13.780Z,20.97
2022-08-04T03:17:13.992Z,20.98
2022-08-04T03:18:13.783Z,20.99
2022-08-04T03:19:13.771Z,21.00
2022-08-04T03:20:13.811Z,21.01
2022-08-04T03:21:13.746Z,21.01
2022-08-04T03:22:13.741Z,21.02
2022-08-04T03:23:14.319Z,21.02
2022-08-04T03:24:18.187Z,21.03
2022-08-04T03:25:14.738Z,21.03
2022-08-04T03:26:13.728Z,21.02
2022-08-04T03:27:13.716Z,21.02
2022-08-04T03:28:13.676Z,21.02
2022-08-04T03:29:13.869Z,21.02
2022-08-04T03:30:13.662Z,21.01
2022-08-04T03:31:13.709Z,21.00
2022-08-04T03:32:13.613Z,20.99
2022-08-04T03:33:13.623Z,20.99
2022-08-04T03:34:13.603Z,20.98
2022-08-04T03:35:13.775Z,20.97
2022-08-04T03:36:14.576Z,20.97
2022-08-04T03:37:13.623Z,20.97
2022-08-04T03:38:13.542Z,20.97
2022-08-04T03:39:13.653Z,20.96
2022-08-04T03:40:13.639Z,20.95
2022-08-04T03:41:13.733Z,20.95
2022-08-04T03:42:16.001Z,20.94
2022-08-04T03:43:58.879Z,20.94
2022-08-04T03:44:14.542Z,20.94
2022-08-04T03:45:23.668Z,20.94
2022-08-04T03:46:15.129Z,20.94
2022-08-04T03:47:13.526Z,20.93
2022-08-04T03:48:13.442Z,20.93
2022-08-04T03:49:13.445Z,20.92
2022-08-04T03:50:13.435Z,20.92
2022-08-04T03:51:32.614Z,20.91
2022-08-04T03:52:14.710Z,20.89
2022-08-04T03:53:13.496Z,20.88
2022-08-04T03:54:13.409Z,20.86
2022-08-04T03:55:13.409Z,20.85
2022-08-04T03:56:13.395Z,20.84
2022-08-04T03:57:13.498Z,20.83
2022-08-04T03:58:13.693Z,20.82
2022-08-04T03:59:13.320Z,20.81
2022-08-04T04:00:13.356Z,20.81
2022-08-04T04:01:13.345Z,20.81
2022-08-04T04:02:13.331Z,20.80
2022-08-04T04:03:13.314Z,20.80
2022-08-04T04:04:14.465Z,20.80
2022-08-04T04:05:13.307Z,20.80
2022-08-04T04:06:15.210Z,20.80
2022-08-04T04:07:14.210Z,20.80
2022-08-04T04:08:18.678Z,20.79
2022-08-04T04:09:20.430Z,20.78
2022-08-04T04:10:14.475Z,20.77
2022-08-04T04:11:13.256Z,20.76
2022-08-04T04:12:13.195Z,20.75
2022-08-04T04:13:13.189Z,20.75
2022-08-04T04:14:13.223Z,20.74
2022-08-04T04:15:13.224Z,20.73
2022-08-04T04:16:13.484Z,20.72
2022-08-04T04:17:13.267Z,20.70
2022-08-04T04:18:13.157Z,20.69
2022-08-04T04:19:13.160Z,20.68
2022-08-04T04:20:13.083Z,20.67
2022-08-04T04:21:13.227Z,20.67
2022-08-04T04:22:13.414Z,20.66
2022-08-04T04:23:13.106Z,20.66
2022-08-04T04:24:13.080Z,20.65
2022-08-04T04:25:13.066Z,20.64
2022-08-04T04:26:13.065Z,20.63
2022-08-04T04:27:13.159Z,20.62
2022-08-04T04:28:45.197Z,20.61
2022-08-04T04:29:14.047Z,20.61
2022-08-04T04:30:13.033Z,20.60
2022-08-04T04:31:13.054Z,20.60
2022-08-04T04:32:12.990Z,20.60
2022-08-04T04:33:12.971Z,20.61
2022-08-04T04:34:13.156Z,20.61
2022-08-04T04:35:13.093Z,20.61
2022-08-04T04:36:12.992Z,20.61
2022-08-04T04:37:13.117Z,20.62
2022-08-04T04:38:13.007Z,20.62
2022-08-04T04:39:12.965Z,20.63
2022-08-04T04:40:13.169Z,20.63
2022-08-04T04:41:12.967Z,20.64
2022-08-04T04:42:12.862Z,20.64
2022-08-04T04:43:12.982Z,20.64
2022-08-04T04:44:12.847Z,20.64
2022-08-04T04:45:13.028Z,20.64
2022-08-04T04:46:15.271Z,20.65
2022-08-04T04:47:12.916Z,20.65
2022-08-04T04:48:12.800Z,20.66
2022-08-04T04:49:12.853Z,20.67
2022-08-04T04:50:12.843Z,20.69
2022-08-04T04:51:12.981Z,20.70
2022-08-04T04:52:12.798Z,20.72
2022-08-04T04:53:12.787Z,20.74
2022-08-04T04:54:12.802Z,20.75
2022-08-04T04:55:12.746Z,20.77
2022-08-04T04:56:12.739Z,20.77
2022-08-04T04:57:13.014Z,20.78
2022-08-04T04:58:12.699Z,20.79
2022-08-04T04:59:12.767Z,20.79
2022-08-04T05:00:12.719Z,20.80
